createdAt,value
2018-06-14T00:02:25.046Z,12.90
2018-06-14T00:04:53.506Z,12.80
2018-06-14T00:07:22.060Z,12.90
2018-06-14T00:09:50.614Z,12.80
2018-06-14T00:12:19.117Z,12.90
2018-06-14T00:14:47.654Z,12.90
2018-06-14T00:17:16.110Z,13.00
2018-06-14T00:19:44.630Z,13.00
2018-06-14T00:22:13.593Z,13.00
2018-06-14T00:24:42.445Z,13.00
2018-06-14T00:27:10.890Z,13.10
2018-06-14T00:29:39.515Z,13.10
2018-06-14T00:32:08.079Z,13.20
2018-06-14T00:34:36.554Z,13.10
2018-06-14T00:37:05.038Z,13.10
2018-06-14T00:39:35.680Z,13.10
2018-06-14T00:42:04.330Z,13.10
2018-06-14T00:44:32.822Z,13.10
2018-06-14T00:47:01.583Z,13.20
2018-06-14T00:51:58.284Z,13.20
2018-06-14T00:54:26.859Z,13.20
2018-06-14T00:57:06.447Z,13.30
2018-06-14T00:59:34.942Z,13.20
2018-06-14T01:02:03.414Z,13.10
2018-06-14T01:04:31.889Z,13.10
2018-06-14T01:07:00.372Z,13.20
2018-06-14T01:09:32.790Z,13.20
2018-06-14T01:12:01.275Z,13.30
2018-06-14T01:14:29.690Z,13.30
2018-06-14T01:16:58.136Z,13.30
2018-06-14T01:19:26.544Z,13.20
2018-06-14T01:21:54.998Z,13.20
2018-06-14T01:24:23.409Z,13.20
2018-06-14T01:26:54.299Z,13.20
2018-06-14T01:29:24.026Z,13.20
2018-06-14T01:31:52.474Z,13.20
2018-06-14T01:34:20.904Z,13.10
2018-06-14T01:36:50.252Z,13.10
2018-06-14T01:39:18.704Z,13.10
2018-06-14T01:41:47.723Z,13.10
2018-06-14T01:44:16.153Z,13.10
2018-06-14T01:49:12.721Z,13.30
2018-06-14T01:51:41.177Z,13.20
2018-06-14T01:54:09.606Z,13.20
2018-06-14T01:56:38.081Z,13.10
2018-06-14T01:59:06.709Z,13.10
2018-06-14T02:01:35.150Z,13.10
2018-06-14T02:04:03.600Z,13.10
2018-06-14T02:06:32.040Z,13.10
2018-06-14T02:09:00.734Z,13.00
2018-06-14T02:11:29.162Z,13.10
2018-06-14T02:13:57.578Z,13.10
2018-06-14T02:16:26.026Z,13.10
2018-06-14T02:18:54.505Z,13.00
2018-06-14T02:21:22.963Z,13.00
2018-06-14T02:23:51.433Z,13.00
2018-06-14T02:26:20.113Z,12.90
2018-06-14T02:28:50.723Z,12.90
2018-06-14T02:31:19.183Z,13.00
2018-06-14T02:33:47.659Z,13.10
2018-06-14T02:36:16.164Z,13.00
2018-06-14T02:38:44.577Z,12.90
2018-06-14T02:41:13.030Z,12.90
2018-06-14T02:43:41.530Z,12.90
2018-06-14T02:46:09.985Z,12.80
2018-06-14T02:48:38.408Z,12.80
2018-06-14T02:51:06.966Z,12.80
2018-06-14T02:53:35.394Z,12.90
2018-06-14T02:56:03.878Z,12.80
2018-06-14T02:58:32.339Z,12.90
2018-06-14T03:01:00.816Z,12.90
2018-06-14T03:03:29.279Z,13.00
2018-06-14T03:05:57.761Z,12.90
2018-06-14T03:08:26.222Z,12.90
2018-06-14T03:10:54.654Z,12.80
2018-06-14T03:13:23.098Z,12.90
2018-06-14T03:15:51.541Z,12.90
2018-06-14T03:18:19.976Z,12.90
2018-06-14T03:20:48.432Z,12.90
2018-06-14T03:23:17.083Z,12.80
2018-06-14T03:25:45.797Z,12.80
2018-06-14T03:28:14.239Z,12.90
2018-06-14T03:30:42.791Z,12.80
2018-06-14T03:33:11.250Z,12.80
2018-06-14T03:35:39.725Z,12.80
2018-06-14T03:38:08.204Z,12.90
2018-06-14T03:40:36.678Z,12.90
2018-06-14T03:43:05.165Z,12.80
2018-06-14T03:45:33.627Z,12.80
2018-06-14T03:48:02.130Z,13.00
2018-06-14T03:50:30.622Z,13.00
2018-06-14T03:52:59.073Z,13.00
2018-06-14T03:55:27.537Z,13.00
2018-06-14T04:00:24.151Z,13.10
2018-06-14T04:02:52.853Z,13.10
2018-06-14T04:05:21.378Z,13.00
2018-06-14T04:07:49.817Z,13.00
2018-06-14T04:10:18.329Z,13.00
2018-06-14T04:12:46.725Z,13.10
2018-06-14T04:15:15.181Z,13.10
2018-06-14T04:17:47.837Z,13.10
2018-06-14T04:20:16.754Z,13.20
2018-06-14T04:22:45.176Z,13.30
2018-06-14T04:25:13.633Z,13.20
2018-06-14T04:30:10.254Z,13.00
2018-06-14T04:32:38.678Z,13.20
2018-06-14T04:35:07.121Z,13.20
2018-06-14T04:37:35.559Z,13.20
2018-06-14T04:40:04.030Z,13.30
2018-06-14T04:42:32.498Z,13.20
2018-06-14T04:45:01.010Z,13.30
2018-06-14T04:47:29.769Z,13.30
2018-06-14T04:49:58.234Z,13.20
2018-06-14T04:52:26.773Z,13.20
2018-06-14T04:54:55.462Z,13.10
2018-06-14T04:57:23.976Z,13.20
2018-06-14T04:59:52.506Z,13.30
2018-06-14T05:02:21.007Z,13.50
2018-06-14T05:07:17.601Z,13.60
2018-06-14T05:09:46.046Z,13.70
2018-06-14T05:12:14.478Z,13.70
2018-06-14T05:17:11.098Z,13.50
2018-06-14T05:19:40.797Z,13.60
2018-06-14T05:22:09.470Z,13.70
2018-06-14T05:24:38.537Z,13.90
2018-06-14T05:27:07.058Z,13.90
2018-06-14T05:29:35.757Z,13.80
2018-06-14T05:32:04.324Z,13.70
2018-06-14T05:34:32.956Z,13.70
2018-06-14T05:37:01.509Z,13.80
2018-06-14T05:39:29.970Z,13.80
2018-06-14T05:41:58.397Z,13.90
2018-06-14T05:44:26.878Z,14.00
2018-06-14T05:46:55.326Z,14.00
2018-06-14T05:49:23.781Z,14.20
2018-06-14T05:51:52.282Z,14.40
2018-06-14T05:54:20.983Z,14.50
2018-06-14T05:56:49.731Z,14.50
2018-06-14T05:59:18.214Z,14.60
2018-06-14T06:01:46.657Z,14.60
2018-06-14T06:04:15.146Z,14.60
2018-06-14T06:06:43.602Z,14.50
2018-06-14T06:09:12.549Z,14.40
2018-06-14T06:16:37.672Z,14.70
2018-06-14T06:19:06.139Z,14.80
2018-06-14T06:21:34.611Z,14.70
2018-06-14T06:24:03.070Z,14.70
2018-06-14T06:26:31.581Z,14.90
2018-06-14T06:29:00.230Z,14.60
2018-06-14T06:31:28.713Z,14.70
2018-06-14T06:33:57.329Z,15.00
2018-06-14T06:36:26.287Z,15.00
2018-06-14T06:38:54.916Z,15.00
2018-06-14T06:41:23.379Z,15.10
2018-06-14T06:43:51.881Z,15.30
2018-06-14T06:46:20.336Z,15.40
2018-06-14T06:48:48.815Z,15.60
2018-06-14T06:51:17.277Z,15.70
2018-06-14T06:53:45.750Z,15.90
2018-06-14T06:56:14.215Z,15.90
2018-06-14T07:01:11.110Z,16.40
2018-06-14T07:03:39.614Z,16.60
2018-06-14T07:06:08.168Z,16.60
2018-06-14T07:08:36.584Z,16.80
2018-06-14T07:11:05.095Z,16.90
2018-06-14T07:13:33.580Z,16.90
2018-06-14T07:16:02.311Z,16.80
2018-06-14T07:18:30.862Z,16.50
2018-06-14T07:23:27.502Z,16.20
2018-06-14T07:25:56.031Z,16.10
2018-06-14T07:28:24.531Z,16.00
2018-06-14T07:30:53.021Z,16.10
2018-06-14T07:33:21.501Z,16.00
2018-06-14T07:35:49.991Z,15.80
2018-06-14T07:38:18.528Z,15.60
2018-06-14T07:40:47.448Z,15.50
2018-06-14T07:43:16.005Z,15.70
2018-06-14T07:45:44.417Z,15.60
2018-06-14T07:48:12.890Z,15.70
2018-06-14T07:50:41.370Z,15.70
2018-06-14T07:53:09.866Z,15.80
2018-06-14T07:55:38.297Z,16.00
2018-06-14T07:58:06.826Z,16.10
2018-06-14T08:00:35.262Z,16.30
2018-06-14T08:03:04.297Z,16.40
2018-06-14T08:05:32.747Z,16.40
2018-06-14T08:08:01.201Z,16.50
2018-06-14T08:10:29.666Z,16.70
2018-06-14T08:12:58.117Z,16.60
2018-06-14T08:15:26.560Z,16.70
2018-06-14T08:17:55.031Z,17.00
2018-06-14T08:20:24.705Z,17.00
2018-06-14T08:22:53.169Z,17.00
2018-06-14T08:25:21.630Z,16.70
2018-06-14T08:27:50.097Z,17.00
2018-06-14T08:30:18.569Z,17.10
2018-06-14T08:32:47.016Z,17.30
2018-06-14T08:35:15.741Z,17.40
2018-06-14T08:37:44.550Z,17.60
2018-06-14T08:40:12.985Z,17.60
2018-06-14T08:42:41.682Z,17.60
2018-06-14T08:45:10.151Z,17.70
2018-06-14T08:47:38.609Z,17.70
2018-06-14T08:50:07.316Z,17.50
2018-06-14T08:52:35.811Z,17.40
2018-06-14T08:55:04.558Z,17.00
2018-06-14T08:57:33.088Z,17.00
2018-06-14T09:00:01.595Z,17.30
2018-06-14T09:02:30.102Z,17.50
2018-06-14T09:04:58.583Z,17.80
2018-06-14T09:07:27.149Z,18.10
2018-06-14T09:09:55.729Z,17.80
2018-06-14T09:12:24.413Z,17.90
2018-06-14T09:14:52.912Z,18.20
2018-06-14T09:17:21.397Z,18.10
2018-06-14T09:22:18.449Z,17.80
2018-06-14T09:27:15.582Z,18.00
2018-06-14T09:29:44.730Z,18.10
2018-06-14T09:32:14.262Z,18.20
2018-06-14T09:34:43.211Z,18.20
2018-06-14T09:37:12.057Z,18.50
2018-06-14T09:39:40.574Z,18.50
2018-06-14T09:42:09.076Z,18.50
2018-06-14T09:44:37.521Z,18.70
2018-06-14T09:47:05.992Z,18.70
2018-06-14T09:49:34.473Z,18.70
2018-06-14T09:52:02.922Z,18.20
2018-06-14T09:54:31.603Z,18.30
2018-06-14T09:57:00.075Z,18.50
2018-06-14T10:01:56.944Z,18.10
2018-06-14T10:06:54.294Z,17.90
2018-06-14T10:09:23.581Z,17.70
2018-06-14T10:11:52.512Z,17.80
2018-06-14T10:14:21.179Z,18.10
2018-06-14T10:16:49.629Z,18.40
2018-06-14T10:19:18.082Z,17.90
2018-06-14T10:21:46.787Z,17.90
2018-06-14T10:24:15.221Z,17.90
2018-06-14T10:26:43.839Z,18.30
2018-06-14T10:29:12.299Z,18.40
2018-06-14T10:31:40.758Z,18.50
2018-06-14T10:34:09.274Z,17.80
2018-06-14T10:36:37.770Z,17.70
2018-06-14T10:39:07.506Z,17.70
2018-06-14T10:41:35.957Z,17.30
2018-06-14T10:44:05.050Z,17.40
2018-06-14T10:46:33.745Z,17.70
2018-06-14T10:49:02.660Z,18.20
2018-06-14T10:51:31.097Z,17.90
2018-06-14T10:56:27.730Z,17.70
2018-06-14T10:58:56.171Z,17.80
2018-06-14T11:01:24.665Z,17.60
2018-06-14T11:03:53.197Z,17.60
2018-06-14T11:06:21.673Z,17.80
2018-06-14T11:08:50.107Z,17.60
2018-06-14T11:11:18.587Z,17.70
2018-06-14T11:13:47.248Z,17.90
2018-06-14T11:16:15.713Z,18.10
2018-06-14T11:18:44.145Z,18.20
2018-06-14T11:21:12.607Z,18.30
2018-06-14T11:23:41.050Z,18.30
2018-06-14T11:28:37.944Z,18.00
2018-06-14T11:31:06.426Z,17.80
2018-06-14T11:33:34.846Z,18.10
2018-06-14T11:36:03.301Z,18.10
2018-06-14T11:38:31.714Z,18.00
2018-06-14T11:41:00.289Z,18.10
2018-06-14T11:43:28.725Z,18.40
2018-06-14T11:45:57.460Z,18.40
2018-06-14T11:48:25.948Z,18.60
2018-06-14T11:50:54.513Z,19.00
2018-06-14T11:53:23.109Z,19.10
2018-06-14T11:55:51.573Z,19.50
2018-06-14T11:58:19.977Z,19.60
2018-06-14T12:00:48.428Z,19.60
2018-06-14T12:03:16.874Z,19.60
2018-06-14T12:08:13.725Z,19.80
2018-06-14T12:10:42.193Z,19.90
2018-06-14T12:13:10.619Z,19.90
2018-06-14T12:15:39.065Z,19.70
2018-06-14T12:18:07.505Z,19.70
2018-06-14T12:20:36.349Z,19.60
2018-06-14T12:25:32.974Z,18.90
2018-06-14T12:28:01.450Z,18.80
2018-06-14T12:30:29.922Z,18.50
2018-06-14T12:32:58.440Z,18.40
2018-06-14T12:37:55.054Z,18.00
2018-06-14T12:40:23.531Z,18.10
2018-06-14T12:42:52.080Z,18.10
2018-06-14T12:45:20.937Z,18.20
2018-06-14T12:47:49.417Z,18.20
2018-06-14T12:50:18.309Z,18.10
2018-06-14T12:52:47.109Z,18.10
2018-06-14T12:55:15.802Z,18.20
2018-06-14T12:57:44.336Z,18.10
2018-06-14T13:00:12.817Z,18.00
2018-06-14T13:02:41.273Z,18.00
2018-06-14T13:05:09.768Z,18.00
2018-06-14T13:07:38.242Z,18.20
2018-06-14T13:10:07.361Z,18.00
2018-06-14T13:12:35.810Z,18.00
2018-06-14T13:15:04.620Z,18.10
2018-06-14T13:17:33.114Z,18.00
2018-06-14T13:20:01.649Z,18.40
2018-06-14T13:22:30.088Z,18.30
2018-06-14T13:24:59.066Z,18.30
2018-06-14T13:27:27.709Z,18.60
2018-06-14T13:29:56.170Z,18.90
2018-06-14T13:32:24.630Z,19.10
2018-06-14T13:34:53.134Z,19.10
2018-06-14T13:37:21.611Z,19.00
2018-06-14T13:39:50.090Z,19.10
2018-06-14T13:42:18.566Z,19.40
2018-06-14T13:44:47.053Z,19.50
2018-06-14T13:47:15.771Z,19.80
2018-06-14T13:49:44.276Z,19.80
2018-06-14T13:52:12.725Z,19.70
2018-06-14T13:54:41.222Z,19.80
2018-06-14T13:57:09.701Z,19.70
2018-06-14T13:59:38.261Z,19.80
2018-06-14T14:02:06.750Z,19.80
2018-06-14T14:04:35.255Z,19.80
2018-06-14T14:07:04.644Z,20.00
2018-06-14T14:09:33.249Z,19.80
2018-06-14T14:14:30.135Z,19.80
2018-06-14T14:16:58.861Z,20.10
2018-06-14T14:19:27.374Z,19.90
2018-06-14T14:21:55.837Z,19.70
2018-06-14T14:24:24.316Z,19.70
2018-06-14T14:26:53.002Z,19.80
2018-06-14T14:29:21.465Z,20.10
2018-06-14T14:31:49.917Z,20.20
2018-06-14T14:34:18.629Z,20.20
2018-06-14T14:36:47.109Z,20.30
2018-06-14T14:39:15.641Z,20.10
2018-06-14T14:44:12.270Z,19.90
2018-06-14T14:46:40.765Z,20.10
2018-06-14T14:49:09.314Z,20.30
2018-06-14T14:51:37.768Z,20.40
2018-06-14T14:54:06.236Z,20.40
2018-06-14T14:56:34.911Z,20.50
2018-06-14T14:59:03.422Z,20.60
2018-06-14T15:01:32.151Z,20.70
2018-06-14T15:04:00.673Z,20.50
2018-06-14T15:08:57.301Z,20.50
2018-06-14T15:11:25.829Z,20.50
2018-06-14T15:13:54.314Z,20.40
2018-06-14T15:16:23.138Z,20.50
2018-06-14T15:18:52.473Z,20.40
2018-06-14T15:21:20.950Z,20.10
2018-06-14T15:23:49.454Z,20.10
2018-06-14T15:28:46.095Z,20.20
2018-06-14T15:33:42.742Z,20.00
2018-06-14T15:36:11.211Z,20.10
2018-06-14T15:38:39.674Z,20.00
2018-06-14T15:41:08.121Z,19.90
2018-06-14T15:43:36.635Z,19.90
2018-06-14T15:46:05.569Z,19.90
2018-06-14T15:48:34.082Z,19.90
2018-06-14T15:51:02.509Z,19.90
2018-06-14T15:53:30.979Z,20.00
2018-06-14T15:56:13.772Z,20.10
2018-06-14T15:58:42.324Z,20.20
2018-06-14T16:01:10.747Z,20.10
2018-06-14T16:03:39.222Z,20.10
2018-06-14T16:06:07.675Z,20.20
2018-06-14T16:11:04.312Z,20.00
2018-06-14T16:13:32.797Z,20.00
2018-06-14T16:16:01.551Z,19.90
2018-06-14T16:18:30.382Z,19.70
2018-06-14T16:20:58.855Z,19.60
2018-06-14T16:23:27.344Z,19.60
2018-06-14T16:25:56.040Z,19.40
2018-06-14T16:30:52.713Z,19.20
2018-06-14T16:35:49.402Z,19.40
2018-06-14T16:38:17.890Z,19.50
2018-06-14T16:40:46.359Z,19.60
2018-06-14T16:43:14.843Z,19.60
2018-06-14T16:45:43.613Z,19.60
2018-06-14T16:48:12.070Z,19.80
2018-06-14T16:50:40.516Z,19.80
2018-06-14T16:53:09.009Z,19.80
2018-06-14T16:55:37.469Z,19.70
2018-06-14T16:58:06.147Z,19.70
2018-06-14T17:00:34.832Z,19.70
2018-06-14T17:03:03.419Z,19.60
2018-06-14T17:08:00.257Z,19.30
2018-06-14T17:10:28.823Z,19.30
2018-06-14T17:12:57.330Z,19.30
2018-06-14T17:15:25.854Z,19.30
2018-06-14T17:17:54.277Z,19.20
2018-06-14T17:22:50.936Z,18.80
2018-06-14T17:25:19.408Z,18.80
2018-06-14T17:30:23.129Z,18.60
2018-06-14T17:32:51.623Z,18.50
2018-06-14T17:37:48.405Z,18.40
2018-06-14T17:40:16.973Z,18.30
2018-06-14T17:42:45.491Z,18.20
2018-06-14T17:45:13.946Z,18.10
2018-06-14T17:47:42.445Z,18.10
2018-06-14T17:50:10.988Z,18.10
2018-06-14T17:55:07.657Z,17.90
2018-06-14T18:00:04.528Z,17.60
2018-06-14T18:02:33.034Z,17.50
2018-06-14T18:05:01.715Z,17.40
2018-06-14T18:07:30.082Z,17.40
2018-06-14T18:09:58.564Z,17.30
2018-06-14T18:12:27.049Z,17.20
2018-06-14T18:14:55.482Z,17.20
2018-06-14T18:17:23.991Z,17.10
2018-06-14T18:22:20.860Z,16.90
2018-06-14T18:24:49.303Z,16.90
2018-06-14T18:27:17.851Z,16.80
2018-06-14T18:29:46.354Z,16.70
2018-06-14T18:34:42.937Z,16.50
2018-06-14T18:37:11.424Z,16.40
2018-06-14T18:39:39.989Z,16.40
2018-06-14T18:42:08.510Z,16.40
2018-06-14T18:44:37.038Z,16.30
2018-06-14T18:47:05.561Z,16.30
2018-06-14T18:49:34.039Z,16.20
2018-06-14T18:52:02.754Z,16.20
2018-06-14T18:54:31.457Z,16.10
2018-06-14T18:56:59.954Z,16.00
2018-06-14T18:59:28.424Z,15.90
2018-06-14T19:01:56.926Z,15.90
2018-06-14T19:04:25.421Z,15.80
2018-06-14T19:06:53.935Z,15.70
2018-06-14T19:09:22.429Z,15.70
2018-06-14T19:14:19.097Z,15.60
2018-06-14T19:16:47.553Z,15.60
2018-06-14T19:19:16.250Z,15.50
2018-06-14T19:26:41.051Z,15.30
2018-06-14T19:29:09.595Z,15.20
2018-06-14T19:31:38.184Z,15.20
2018-06-14T19:34:06.741Z,15.10
2018-06-14T19:39:03.566Z,15.00
2018-06-14T19:41:32.034Z,15.00
2018-06-14T19:44:00.738Z,15.00
2018-06-14T19:46:29.255Z,14.90
2018-06-14T19:48:57.754Z,14.90
2018-06-14T19:51:26.237Z,14.80
2018-06-14T19:53:54.973Z,14.80
2018-06-14T19:56:23.429Z,14.70
2018-06-14T19:58:52.363Z,14.80
2018-06-14T20:01:20.862Z,14.70
2018-06-14T20:03:49.371Z,14.70
2018-06-14T20:06:17.898Z,14.80
2018-06-14T20:08:46.402Z,14.90
2018-06-14T20:11:14.934Z,14.80
2018-06-14T20:13:44.283Z,14.70
2018-06-14T20:16:12.941Z,14.70
2018-06-14T20:18:41.606Z,14.60
2018-06-14T20:21:10.210Z,14.50
2018-06-14T20:23:38.591Z,14.50
2018-06-14T20:26:07.155Z,14.50
2018-06-14T20:28:35.664Z,14.50
2018-06-14T20:31:04.639Z,14.50
2018-06-14T20:33:34.865Z,14.50
2018-06-14T20:36:03.354Z,14.50
2018-06-14T20:38:32.087Z,14.60
2018-06-14T20:43:28.876Z,14.60
2018-06-14T20:45:57.386Z,14.60
2018-06-14T20:48:25.908Z,14.50
2018-06-14T20:50:54.508Z,14.50
2018-06-14T20:53:23.727Z,14.60
2018-06-14T20:55:52.325Z,14.60
2018-06-14T20:58:21.702Z,14.60
2018-06-14T21:00:50.659Z,14.60
2018-06-14T21:03:19.180Z,14.60
2018-06-14T21:05:47.981Z,14.60
2018-06-14T21:08:16.497Z,14.60
2018-06-14T21:10:45.002Z,14.70
2018-06-14T21:13:13.558Z,14.70
2018-06-14T21:15:42.107Z,14.80
2018-06-14T21:18:10.669Z,14.80
2018-06-14T21:20:39.166Z,14.80
2018-06-14T21:23:07.686Z,14.80
2018-06-14T21:25:37.082Z,14.80
2018-06-14T21:28:06.066Z,14.80
2018-06-14T21:30:34.581Z,14.80
2018-06-14T21:33:03.145Z,14.80
2018-06-14T21:35:31.705Z,14.90
2018-06-14T21:38:00.465Z,14.90
2018-06-14T21:42:57.431Z,15.00
2018-06-14T21:45:26.145Z,15.00
2018-06-14T21:47:54.675Z,15.00
2018-06-14T21:50:23.182Z,15.10
2018-06-14T21:52:51.685Z,15.10
2018-06-14T21:55:20.138Z,15.20
2018-06-14T22:00:16.791Z,15.10
2018-06-14T22:02:50.725Z,15.10
2018-06-14T22:10:15.785Z,15.10
2018-06-14T22:12:44.481Z,15.00
2018-06-14T22:15:13.032Z,15.00
2018-06-14T22:17:41.800Z,15.00
2018-06-14T22:20:10.298Z,15.00
2018-06-14T22:25:07.040Z,14.90
2018-06-14T22:27:35.612Z,14.90
2018-06-14T22:30:04.398Z,14.90
2018-06-14T22:32:32.976Z,14.80
2018-06-14T22:35:20.794Z,14.80
2018-06-14T22:37:49.718Z,14.80
2018-06-14T22:40:18.208Z,14.90
2018-06-14T22:42:46.705Z,14.80
2018-06-14T22:45:15.419Z,14.80
2018-06-14T22:47:44.073Z,14.80
2018-06-14T22:50:12.604Z,14.70
2018-06-14T22:52:52.505Z,14.70
2018-06-14T22:55:22.205Z,14.70
2018-06-14T22:57:50.814Z,14.70
2018-06-14T23:00:35.078Z,14.70
2018-06-14T23:03:03.606Z,14.70
2018-06-14T23:05:32.088Z,14.70
2018-06-14T23:08:00.560Z,14.60
2018-06-14T23:10:43.988Z,14.70
2018-06-14T23:13:14.697Z,14.50
2018-06-14T23:15:43.190Z,14.50
2018-06-14T23:18:11.710Z,14.40
2018-06-14T23:20:40.231Z,14.50
2018-06-14T23:25:37.841Z,14.50
2018-06-14T23:28:06.354Z,14.50
2018-06-14T23:30:34.851Z,14.50
2018-06-14T23:33:03.323Z,14.40
2018-06-14T23:35:31.801Z,14.50
2018-06-14T23:38:00.294Z,14.50
2018-06-14T23:40:28.757Z,14.50
2018-06-14T23:42:57.216Z,14.50
2018-06-14T23:45:25.690Z,14.50
2018-06-14T23:47:54.140Z,14.50
2018-06-14T23:52:50.998Z,14.30
2018-06-14T23:55:19.685Z,14.30
